Terminal Aerodrome Forecast
Issued by NWS

Home | Current Version | Previous Version | Graphics & Text | Print | Product List | Glossary On
Versions: 1 2 3 4 5 6 7 8 9 10 11 12 13 14 15 16 17 18 19 20 21 22 23 24 25 26 27 28 29 30 31 32 33 34 35 36 37
000
FTUS43 KGRB 291720
TAFRHI
TAF
KRHI 291720Z 2918/3018 21008KT P6SM SCT020 SCT060
     FM300100 VRB03KT P6SM SCT025
     FM300400 00000KT 5SM BR SCT004
     FM300700 00000KT 2SM BR SCT002
      TEMPO 3007/3011 1/2SM FG VV002
     FM301100 VRB03KT 1/2SM FG VV002
     FM301400 22006KT 5SM BR BKN008=

USA.gov is the U.S. government's official web portal to all federal, state and local government web resources and services.